Terminal Aerodrome Forecast
Issued by NWS Tuscon, AZ

Home | Current Version | Previous Version | Text Only | Print | Product List | Glossary On
Versions: 1 2 3 4 5 6 7 8 9 10 11 12
487
FTUS45 KTWC 201738
TAFTUS
TAF
KTUS 201738Z 2018/2118 13006KT P6SM FEW080 BKN120
     FM202100 32007KT P6SM SCT070 BKN120
     FM210100 02010KT P6SM SCT080 BKN140
     FM210700 11009KT P6SM SCT140 BKN200=

USA.gov is the U.S. government's official web portal to all federal, state and local government web resources and services.